createdAt,value
2023-04-15T00:02:29.606Z,6.40
2023-04-15T00:06:11.415Z,6.40
2023-04-15T00:09:55.221Z,6.40
2023-04-15T00:13:37.879Z,6.40
2023-04-15T00:17:19.705Z,6.40
2023-04-15T00:21:02.200Z,6.40
2023-04-15T00:24:44.140Z,6.40
2023-04-15T00:28:26.664Z,6.40
2023-04-15T00:32:09.186Z,6.40
2023-04-15T00:35:51.085Z,6.40
2023-04-15T00:39:32.917Z,6.40
2023-04-15T00:43:14.902Z,6.30
2023-04-15T00:46:57.531Z,6.30
2023-04-15T00:50:39.232Z,6.30
2023-04-15T00:54:21.609Z,6.40
2023-04-15T00:58:03.317Z,6.40
2023-04-15T01:01:45.642Z,6.40
2023-04-15T01:05:28.269Z,6.40
2023-04-15T01:09:11.117Z,6.40
2023-04-15T01:12:53.062Z,6.30
2023-04-15T01:16:34.836Z,6.30
2023-04-15T01:20:17.189Z,6.30
2023-04-15T01:23:59.455Z,6.30
2023-04-15T01:27:42.519Z,6.30
2023-04-15T01:31:24.342Z,6.30
2023-04-15T01:35:06.448Z,6.30
2023-04-15T01:38:48.494Z,6.20
2023-04-15T01:42:30.207Z,6.10
2023-04-15T01:46:11.963Z,6.10
2023-04-15T01:49:53.741Z,6.10
2023-04-15T01:53:35.826Z,6.10
2023-04-15T01:57:17.555Z,6.10
2023-04-15T02:00:59.316Z,6.00
2023-04-15T02:04:41.065Z,6.00
2023-04-15T02:08:22.978Z,6.00
2023-04-15T02:12:04.773Z,6.00
2023-04-15T02:15:50.675Z,6.00
2023-04-15T02:19:32.585Z,6.10
2023-04-15T02:23:14.528Z,6.20
2023-04-15T02:26:56.409Z,6.20
2023-04-15T02:30:38.153Z,6.30
2023-04-15T02:34:20.024Z,6.30
2023-04-15T02:38:03.181Z,6.40
2023-04-15T02:41:47.655Z,6.30
2023-04-15T02:45:29.430Z,6.30
2023-04-15T02:49:11.279Z,6.30
2023-04-15T02:52:53.035Z,6.30
2023-04-15T02:56:34.896Z,6.20
2023-04-15T03:00:16.751Z,6.20
2023-04-15T03:03:58.545Z,6.10
2023-04-15T03:07:40.953Z,6.10
2023-04-15T03:11:23.175Z,6.00
2023-04-15T03:15:05.223Z,6.00
2023-04-15T03:18:46.951Z,6.00
2023-04-15T03:22:28.701Z,6.00
2023-04-15T03:26:10.386Z,6.00
2023-04-15T03:29:52.182Z,5.90
2023-04-15T03:33:33.869Z,5.90
2023-04-15T03:37:15.575Z,5.90
2023-04-15T03:40:57.281Z,5.90
2023-04-15T03:44:38.984Z,5.90
2023-04-15T03:48:21.085Z,5.90
2023-04-15T03:52:02.841Z,5.90
2023-04-15T03:55:44.897Z,5.90
2023-04-15T03:59:26.673Z,5.80
2023-04-15T04:03:08.989Z,5.80
2023-04-15T04:06:51.041Z,5.80
2023-04-15T04:10:32.869Z,5.80
2023-04-15T04:14:15.085Z,5.80
2023-04-15T04:17:57.083Z,5.80
2023-04-15T04:21:39.682Z,5.80
2023-04-15T04:25:21.397Z,5.80
2023-04-15T04:29:03.327Z,5.70
2023-04-15T04:32:45.403Z,5.70
2023-04-15T04:36:27.128Z,5.70
2023-04-15T04:40:09.510Z,5.60
2023-04-15T04:43:51.365Z,5.60
2023-04-15T04:47:33.117Z,5.60
2023-04-15T04:51:15.035Z,5.60
2023-04-15T04:54:56.879Z,5.60
2023-04-15T04:58:38.599Z,5.60
2023-04-15T05:02:20.546Z,5.50
2023-04-15T05:06:06.084Z,5.50
2023-04-15T05:09:47.947Z,5.50
2023-04-15T05:13:30.132Z,5.50
2023-04-15T05:17:12.466Z,5.40
2023-04-15T05:20:54.290Z,5.40
2023-04-15T05:24:36.437Z,5.40
2023-04-15T05:28:18.203Z,5.40
2023-04-15T05:32:00.037Z,5.40
2023-04-15T05:35:41.793Z,5.40
2023-04-15T05:39:23.559Z,5.40
2023-04-15T05:43:05.509Z,5.50
2023-04-15T05:46:47.273Z,5.50
2023-04-15T05:50:29.002Z,5.60
2023-04-15T05:54:10.826Z,5.60
2023-04-15T05:57:52.516Z,5.60
2023-04-15T06:01:35.538Z,5.70
2023-04-15T06:05:18.054Z,5.70
2023-04-15T06:08:59.835Z,5.70
2023-04-15T06:12:41.684Z,5.80
2023-04-15T06:16:23.496Z,5.80
2023-04-15T06:20:05.722Z,5.80
2023-04-15T06:23:47.477Z,5.80
2023-04-15T06:27:29.191Z,6.00
2023-04-15T06:31:11.063Z,6.00
2023-04-15T06:34:52.808Z,6.10
2023-04-15T06:38:34.493Z,6.10
2023-04-15T06:42:16.249Z,6.10
2023-04-15T06:45:58.166Z,6.20
2023-04-15T06:49:40.498Z,6.30
2023-04-15T06:53:22.936Z,6.30
2023-04-15T06:57:07.118Z,6.30
2023-04-15T07:00:49.221Z,6.30
2023-04-15T07:04:31.545Z,6.30
2023-04-15T07:08:13.979Z,6.40
2023-04-15T07:11:55.955Z,6.40
2023-04-15T07:15:37.627Z,6.60
2023-04-15T07:19:19.320Z,6.70
2023-04-15T07:23:01.013Z,6.80
2023-04-15T07:26:42.713Z,6.90
2023-04-15T07:30:24.472Z,7.00
2023-04-15T07:34:07.384Z,7.10
2023-04-15T07:37:49.096Z,7.20
2023-04-15T07:41:31.536Z,7.20
2023-04-15T07:45:13.226Z,7.30
2023-04-15T07:48:54.970Z,7.30
2023-04-15T07:52:39.312Z,7.40
2023-04-15T07:56:21.842Z,7.50
2023-04-15T08:00:07.497Z,7.60
2023-04-15T08:03:49.420Z,7.60
2023-04-15T08:07:31.680Z,7.70
2023-04-15T08:11:13.773Z,7.80
2023-04-15T08:14:56.148Z,7.80
2023-04-15T08:18:37.839Z,8.00
2023-04-15T08:22:20.611Z,8.00
2023-04-15T08:26:03.723Z,8.10
2023-04-15T08:29:45.767Z,8.10
2023-04-15T08:33:28.821Z,8.20
2023-04-15T08:37:11.466Z,8.30
2023-04-15T08:40:56.435Z,8.40
2023-04-15T08:44:38.633Z,8.50
2023-04-15T08:48:21.246Z,8.60
2023-04-15T08:52:04.391Z,8.70
2023-04-15T08:55:51.194Z,8.70
2023-04-15T08:59:32.970Z,8.70
2023-04-15T09:03:14.983Z,8.80
2023-04-15T09:06:57.215Z,8.80
2023-04-15T17:15:58.817Z,24.60
2023-04-15T17:19:40.692Z,23.40
2023-04-15T17:23:22.605Z,22.10
2023-04-15T17:27:04.457Z,21.20
2023-04-15T17:30:46.335Z,20.40
2023-04-15T17:34:28.655Z,19.90
2023-04-15T17:38:30.662Z,19.40
2023-04-15T17:42:12.992Z,19.10
2023-04-15T17:45:55.177Z,19.00
2023-04-15T17:49:37.886Z,18.80
2023-04-15T17:53:19.802Z,18.50
2023-04-15T17:57:03.263Z,18.40
2023-04-15T18:00:45.128Z,18.20
2023-04-15T18:04:27.142Z,18.10
2023-04-15T18:08:09.177Z,18.10
2023-04-15T18:11:50.971Z,18.10
2023-04-15T18:15:33.318Z,18.00
2023-04-15T18:19:15.626Z,17.90
2023-04-15T18:22:57.692Z,17.70
2023-04-15T18:26:39.504Z,17.50
2023-04-15T18:30:21.444Z,17.30
2023-04-15T18:34:07.268Z,17.10
2023-04-15T18:37:49.150Z,16.90
2023-04-15T18:41:31.011Z,16.80
2023-04-15T18:45:12.754Z,16.60
2023-04-15T18:48:54.448Z,16.40
2023-04-15T18:52:36.390Z,16.30
2023-04-15T18:56:18.113Z,16.00
2023-04-15T19:00:00.250Z,15.80
2023-04-15T19:03:42.116Z,15.60
2023-04-15T19:07:24.044Z,15.40
2023-04-15T19:11:05.769Z,15.20
2023-04-15T19:14:47.510Z,15.10
2023-04-15T19:18:29.203Z,14.90
2023-04-15T19:22:11.346Z,14.80
2023-04-15T19:25:53.226Z,14.70
2023-04-15T19:29:35.027Z,14.60
2023-04-15T19:33:16.828Z,14.50
2023-04-15T19:36:58.657Z,14.40
2023-04-15T19:40:40.594Z,14.40
2023-04-15T19:44:22.415Z,14.30
2023-04-15T19:48:06.110Z,14.10
2023-04-15T19:51:50.078Z,14.00
2023-04-15T19:55:32.304Z,13.90
2023-04-15T19:59:14.020Z,13.90
2023-04-15T20:02:56.562Z,13.80
2023-04-15T20:06:38.374Z,13.70
2023-04-15T20:10:21.467Z,13.60
2023-04-15T20:14:03.212Z,13.60
2023-04-15T20:17:44.955Z,13.40
2023-04-15T20:21:27.089Z,13.30
2023-04-15T20:25:09.388Z,13.30
2023-04-15T20:28:51.560Z,13.20
2023-04-15T20:32:36.980Z,13.10
2023-04-15T20:36:18.824Z,13.10
2023-04-15T20:40:01.243Z,12.90
2023-04-15T20:43:43.433Z,12.90
2023-04-15T20:47:25.559Z,12.90
2023-04-15T20:51:07.474Z,12.80
2023-04-15T20:54:49.968Z,12.70
2023-04-15T20:58:31.672Z,12.70
2023-04-15T21:02:13.561Z,12.70
2023-04-15T21:05:55.366Z,12.70
2023-04-15T21:09:38.605Z,12.70
2023-04-15T21:13:20.785Z,12.70
2023-04-15T21:17:11.217Z,12.60
2023-04-15T21:21:01.041Z,12.60
2023-04-15T21:24:42.789Z,12.60
2023-04-15T21:28:24.953Z,12.50
2023-04-15T21:32:06.742Z,12.40
2023-04-15T21:35:48.777Z,12.40
2023-04-15T21:39:31.717Z,12.40
2023-04-15T21:43:13.476Z,12.30
2023-04-15T21:46:55.334Z,12.30
2023-04-15T21:50:37.461Z,12.30
2023-04-15T21:54:19.493Z,12.20
2023-04-15T21:58:01.548Z,12.10
2023-04-15T22:01:43.408Z,12.00
2023-04-15T22:05:25.987Z,11.90
2023-04-15T22:09:07.745Z,11.80
2023-04-15T22:12:49.582Z,11.80
2023-04-15T22:16:31.431Z,11.80
2023-04-15T22:20:13.504Z,11.70
2023-04-15T22:24:38.121Z,11.60
2023-04-15T22:27:57.308Z,11.50
2023-04-15T22:31:39.103Z,11.40
2023-04-15T22:35:20.957Z,11.40
2023-04-15T22:39:03.002Z,11.30
2023-04-15T22:42:45.809Z,11.30
2023-04-15T22:46:27.631Z,11.30
2023-04-15T22:50:09.650Z,11.20
2023-04-15T22:53:51.481Z,11.30
2023-04-15T22:57:33.248Z,11.30
2023-04-15T23:01:17.597Z,11.40
2023-04-15T23:04:59.554Z,11.30
2023-04-15T23:08:47.349Z,11.30
2023-04-15T23:12:29.063Z,11.30
2023-04-15T23:16:11.177Z,11.30
2023-04-15T23:19:52.924Z,11.30
2023-04-15T23:23:34.627Z,11.40
2023-04-15T23:27:18.939Z,11.30
2023-04-15T23:31:00.840Z,11.30
2023-04-15T23:34:42.540Z,11.30
2023-04-15T23:38:24.301Z,11.30
2023-04-15T23:42:06.258Z,11.30
2023-04-15T23:45:48.092Z,11.40
2023-04-15T23:49:29.910Z,11.40
2023-04-15T23:53:11.671Z,11.40
2023-04-15T23:56:53.378Z,11.40
